createdAt,value
2019-02-23T02:42:38.252Z,0
2019-02-23T05:43:00.287Z,3
2019-02-23T05:48:50.483Z,7
2019-02-23T05:51:20.622Z,10
2019-02-23T05:53:20.726Z,13
2019-02-23T05:54:20.768Z,17
2019-02-23T05:55:20.872Z,20
2019-02-23T05:56:20.941Z,23
2019-02-23T05:56:50.969Z,27
2019-02-23T05:57:51.079Z,30
2019-02-23T05:58:21.058Z,33
2019-02-23T05:58:51.092Z,37
2019-02-23T05:59:21.094Z,40
2019-02-23T05:59:51.184Z,43
2019-02-23T06:00:21.168Z,47
2019-02-23T06:00:51.220Z,50
2019-02-23T06:01:21.247Z,53
2019-02-23T06:01:51.329Z,57
2019-02-23T06:02:21.396Z,60
2019-02-23T06:02:51.383Z,63
2019-02-23T06:03:21.358Z,70
2019-02-23T06:03:51.401Z,73
2019-02-23T06:04:21.448Z,80
2019-02-23T06:04:51.458Z,87
2019-02-23T06:05:21.517Z,93
2019-02-23T06:05:51.515Z,100
2019-02-23T06:06:21.520Z,107
2019-02-23T06:06:51.588Z,113
2019-02-23T06:07:21.621Z,120
2019-02-23T06:07:51.630Z,130
2019-02-23T06:08:21.692Z,137
2019-02-23T06:08:51.685Z,143
2019-02-23T06:09:21.684Z,153
2019-02-23T06:09:52.468Z,163
2019-02-23T06:10:21.759Z,173
2019-02-23T06:10:51.838Z,183
2019-02-23T06:11:21.852Z,190
2019-02-23T06:11:51.882Z,200
2019-02-23T06:12:21.923Z,213
2019-02-23T06:12:51.922Z,220
2019-02-23T06:13:21.963Z,230
2019-02-23T06:13:52.036Z,240
2019-02-23T06:14:21.998Z,253
2019-02-23T06:14:52.039Z,263
2019-02-23T06:15:22.048Z,273
2019-02-23T06:15:52.169Z,287
2019-02-23T06:16:22.111Z,300
2019-02-23T06:16:52.162Z,310
2019-02-23T06:17:22.230Z,323
2019-02-23T06:17:52.269Z,337
2019-02-23T06:18:22.269Z,350
2019-02-23T06:18:52.327Z,363
2019-02-23T06:19:22.366Z,380
2019-02-23T06:19:52.432Z,393
2019-02-23T06:20:22.382Z,410
2019-02-23T06:20:52.428Z,427
2019-02-23T06:21:22.466Z,443
2019-02-23T06:21:53.939Z,463
2019-02-23T06:22:22.598Z,487
2019-02-23T06:22:52.945Z,507
2019-02-23T06:23:22.577Z,533
2019-02-23T06:23:52.620Z,557
2019-02-23T06:24:22.641Z,583
2019-02-23T06:24:52.693Z,613
2019-02-23T06:25:22.674Z,640
2019-02-23T06:25:52.758Z,670
2019-02-23T06:26:22.729Z,700
2019-02-23T06:26:52.810Z,733
2019-02-23T06:27:22.810Z,767
2019-02-23T06:27:52.879Z,800
2019-02-23T06:28:22.903Z,837
2019-02-23T06:28:52.895Z,870
2019-02-23T06:29:22.941Z,907
2019-02-23T06:29:53.027Z,943
2019-02-23T06:30:23.019Z,983
2019-02-23T06:30:53.085Z,1020
2019-02-23T06:31:23.062Z,1060
2019-02-23T06:31:53.104Z,1097
2019-02-23T06:32:23.118Z,1137
2019-02-23T06:32:53.229Z,1177
2019-02-23T06:33:23.232Z,1220
2019-02-23T06:33:53.308Z,1263
2019-02-23T06:34:23.259Z,1303
2019-02-23T06:34:53.311Z,1350
2019-02-23T06:35:23.397Z,1393
2019-02-23T06:35:53.417Z,1440
2019-02-23T06:36:23.374Z,1487
2019-02-23T06:36:53.432Z,1530
2019-02-23T06:37:23.510Z,1580
2019-02-23T06:37:53.546Z,1627
2019-02-23T06:38:23.526Z,1680
2019-02-23T06:38:53.572Z,1723
2019-02-23T06:39:23.575Z,1773
2019-02-23T06:39:53.581Z,1823
2019-02-23T06:40:23.612Z,1873
2019-02-23T06:40:53.663Z,1920
2019-02-23T06:41:23.654Z,1970
2019-02-23T06:41:53.762Z,2020
2019-02-23T06:42:23.779Z,2070
2019-02-23T06:42:53.759Z,2123
2019-02-23T06:43:23.807Z,2170
2019-02-23T06:43:53.851Z,2220
2019-02-23T06:44:23.866Z,2270
2019-02-23T06:44:54.283Z,2323
2019-02-23T06:45:23.888Z,2370
2019-02-23T06:45:53.947Z,2423
2019-02-23T06:46:23.950Z,2477
2019-02-23T06:46:54.005Z,2527
2019-02-23T06:47:24.072Z,2573
2019-02-23T06:47:54.101Z,2627
2019-02-23T06:48:24.104Z,2680
2019-02-23T06:48:54.149Z,2733
2019-02-23T06:49:24.178Z,2780
2019-02-23T06:49:55.438Z,2830
2019-02-23T06:50:24.244Z,2883
2019-02-23T06:50:54.317Z,2937
2019-02-23T06:51:24.296Z,2987
2019-02-23T06:52:03.921Z,3037
2019-02-23T06:52:24.427Z,3090
2019-02-23T06:52:54.408Z,3143
2019-02-23T06:53:24.461Z,3197
2019-02-23T06:53:54.472Z,3247
2019-02-23T06:54:24.480Z,3300
2019-02-23T06:54:54.563Z,3353
2019-02-23T06:55:24.545Z,3410
2019-02-23T06:55:54.596Z,3460
2019-02-23T06:56:24.614Z,3513
2019-02-23T06:56:54.663Z,3567
2019-02-23T06:57:24.739Z,3620
2019-02-23T06:57:54.717Z,3670
2019-02-23T06:58:24.738Z,3723
2019-02-23T06:58:54.789Z,3780
2019-02-23T06:59:24.792Z,3833
2019-02-23T06:59:54.850Z,3887
2019-02-23T07:00:24.857Z,3940
2019-02-23T07:00:54.957Z,3993
2019-02-23T07:01:24.876Z,4047
2019-02-23T07:01:56.684Z,4097
2019-02-23T07:02:24.961Z,4150
2019-02-23T07:02:55.055Z,4203
2019-02-23T07:03:25.040Z,4253
2019-02-23T07:03:55.075Z,4303
2019-02-23T07:04:25.094Z,4353
2019-02-23T07:04:55.178Z,4407
2019-02-23T07:05:25.173Z,4457
2019-02-23T07:05:55.225Z,4503
2019-02-23T07:06:25.241Z,4550
2019-02-23T07:06:55.271Z,4600
2019-02-23T07:07:25.251Z,4650
2019-02-23T07:07:55.341Z,4700
2019-02-23T07:08:25.397Z,4757
2019-02-23T07:08:55.405Z,4810
2019-02-23T07:09:25.445Z,4860
2019-02-23T07:09:55.498Z,4907
2019-02-23T07:10:25.507Z,4957
2019-02-23T07:10:55.526Z,5000
2019-02-23T07:11:25.532Z,5057
2019-02-23T07:11:55.598Z,5113
2019-02-23T07:12:25.681Z,5167
2019-02-23T07:12:55.604Z,5213
2019-02-23T07:13:25.628Z,5267
2019-02-23T07:13:55.679Z,5313
2019-02-23T07:14:25.708Z,5357
2019-02-23T07:14:55.811Z,5413
2019-02-23T07:15:25.772Z,5463
2019-02-23T07:15:55.836Z,5520
2019-02-23T07:16:25.831Z,5570
2019-02-23T07:16:55.856Z,5620
2019-02-23T07:17:25.902Z,5673
2019-02-23T07:17:55.938Z,5730
2019-02-23T07:18:25.944Z,5780
2019-02-23T07:18:55.972Z,5833
2019-02-23T07:19:26.007Z,5887
2019-02-23T07:19:56.106Z,5943
2019-02-23T07:20:26.061Z,5997
2019-02-23T07:20:56.138Z,6050
2019-02-23T07:21:26.105Z,6100
2019-02-23T07:21:56.196Z,6157
2019-02-23T07:22:26.230Z,6203
2019-02-23T07:22:56.259Z,6253
2019-02-23T07:23:26.275Z,6307
2019-02-23T07:23:56.331Z,6350
2019-02-23T07:24:26.373Z,6397
2019-02-23T07:24:56.377Z,6440
2019-02-23T07:25:26.383Z,6490
2019-02-23T07:25:56.480Z,6540
2019-02-23T07:26:26.494Z,6580
2019-02-23T07:26:56.521Z,6617
2019-02-23T07:27:26.582Z,6657
2019-02-23T07:27:56.522Z,6700
2019-02-23T07:28:26.685Z,6753
2019-02-23T07:28:56.617Z,6803
2019-02-23T07:29:26.662Z,6847
2019-02-23T07:29:56.723Z,6887
2019-02-23T07:30:26.713Z,6927
2019-02-23T07:30:56.697Z,6980
2019-02-23T07:31:26.737Z,7033
2019-02-23T07:31:56.828Z,7083
2019-02-23T07:32:26.809Z,7127
2019-02-23T07:32:56.882Z,7180
2019-02-23T07:33:32.568Z,7237
2019-02-23T07:33:56.925Z,7293
2019-02-23T07:34:26.973Z,7363
2019-02-23T07:34:57.000Z,7430
2019-02-23T07:35:27.010Z,7507
2019-02-23T07:35:57.012Z,7583
2019-02-23T07:36:27.074Z,7680
2019-02-23T07:36:57.107Z,7777
2019-02-23T07:37:27.118Z,7897
2019-02-23T07:37:57.194Z,8220
2019-02-23T07:38:27.191Z,8763
2019-02-23T07:38:57.241Z,9317
2019-02-23T07:39:27.211Z,9753
2019-02-23T07:39:57.414Z,10177
2019-02-23T07:40:27.316Z,10153
2019-02-23T07:40:57.390Z,10323
2019-02-23T07:41:27.373Z,10317
2019-02-23T07:41:57.417Z,10260
2019-02-23T07:42:27.417Z,10300
2019-02-23T07:42:57.474Z,10427
2019-02-23T07:43:27.515Z,10607
2019-02-23T07:43:57.542Z,10617
2019-02-23T07:44:27.533Z,10707
2019-02-23T07:44:57.809Z,10790
2019-02-23T07:45:27.595Z,10593
2019-02-23T07:45:57.678Z,10500
2019-02-23T07:46:27.671Z,10067
2019-02-23T07:46:57.681Z,9990
2019-02-23T07:47:27.709Z,10180
2019-02-23T07:47:57.742Z,10310
2019-02-23T07:48:27.764Z,10300
2019-02-23T07:48:57.815Z,10240
2019-02-23T07:49:27.834Z,10197
2019-02-23T07:49:57.935Z,10483
2019-02-23T07:50:27.890Z,10397
2019-02-23T07:50:57.939Z,10430
2019-02-23T07:51:27.941Z,10410
2019-02-23T07:51:57.995Z,10520
2019-02-23T07:52:28.011Z,10700
2019-02-23T07:52:58.085Z,10613
2019-02-23T07:53:28.088Z,10807
2019-02-23T07:53:58.115Z,10787
2019-02-23T07:54:28.156Z,10883
2019-02-23T07:54:58.235Z,10863
2019-02-23T07:55:28.221Z,10737
2019-02-23T07:55:58.242Z,10967
2019-02-23T07:56:28.328Z,11180
2019-02-23T07:56:58.337Z,11500
2019-02-23T07:57:28.337Z,12397
2019-02-23T07:57:58.391Z,12407
2019-02-23T07:58:28.421Z,12777
2019-02-23T07:58:58.461Z,12987
2019-02-23T07:59:28.490Z,12867
2019-02-23T07:59:58.627Z,12927
2019-02-23T08:00:28.568Z,12970
2019-02-23T08:00:58.630Z,12953
2019-02-23T08:01:28.636Z,13150
2019-02-23T08:01:58.650Z,13250
2019-02-23T08:02:28.630Z,12973
2019-02-23T08:02:58.699Z,13407
2019-02-23T08:03:28.703Z,13343
2019-02-23T08:03:58.725Z,13390
2019-02-23T08:04:28.828Z,13293
2019-02-23T08:04:58.899Z,13047
2019-02-23T08:05:28.859Z,13213
2019-02-23T08:05:58.873Z,13143
2019-02-23T08:06:28.916Z,12537
2019-02-23T08:06:58.941Z,12687
2019-02-23T08:07:28.953Z,12540
2019-02-23T08:07:59.014Z,12527
2019-02-23T08:08:29.071Z,13003
2019-02-23T08:08:59.052Z,13330
2019-02-23T08:09:29.084Z,13453
2019-02-23T08:09:59.197Z,13307
2019-02-23T08:10:29.150Z,12723
2019-02-23T08:10:59.183Z,12500
2019-02-23T08:11:29.226Z,12407
2019-02-23T08:11:59.303Z,12360
2019-02-23T08:12:29.229Z,12690
2019-02-23T08:12:59.317Z,12343
2019-02-23T08:13:29.361Z,13290
2019-02-23T08:13:59.378Z,13123
2019-02-23T08:14:29.415Z,13567
2019-02-23T08:14:59.430Z,14117
2019-02-23T08:15:29.477Z,13893
2019-02-23T08:15:59.569Z,13507
2019-02-23T08:16:29.554Z,13047
2019-02-23T08:16:59.596Z,12870
2019-02-23T08:17:29.572Z,12687
2019-02-23T08:17:59.635Z,12637
2019-02-23T08:18:29.608Z,12737
2019-02-23T08:18:59.689Z,13453
2019-02-23T08:19:29.679Z,13717
2019-02-23T08:19:59.711Z,13230
2019-02-23T08:20:29.751Z,13473
2019-02-23T08:20:59.835Z,13137
2019-02-23T08:21:29.795Z,13157
2019-02-23T08:21:59.860Z,13297
2019-02-23T08:22:36.997Z,13580
2019-02-23T08:22:59.943Z,13447
2019-02-23T08:23:29.923Z,14183
2019-02-23T08:24:00.021Z,14403
2019-02-23T08:24:29.979Z,14580
2019-02-23T08:25:00.027Z,14667
2019-02-23T08:25:30.063Z,14577
2019-02-23T08:26:00.341Z,14513
2019-02-23T08:26:30.150Z,14290
2019-02-23T08:27:00.176Z,14367
2019-02-23T08:27:30.204Z,14443
2019-02-23T08:28:00.760Z,14317
2019-02-23T08:28:30.264Z,14217
2019-02-23T08:29:00.745Z,13990
2019-02-23T08:29:30.288Z,13733
2019-02-23T08:30:00.807Z,13630
2019-02-23T08:30:30.384Z,13380
2019-02-23T08:31:00.726Z,13133
2019-02-23T08:31:30.448Z,13367
2019-02-23T08:32:00.947Z,13393
2019-02-23T08:32:30.506Z,13220
2019-02-23T08:33:00.726Z,13273
2019-02-23T08:33:30.779Z,13470
2019-02-23T08:34:00.715Z,13210
2019-02-23T08:34:30.646Z,13380
2019-02-23T08:35:01.025Z,12933
2019-02-23T08:35:30.710Z,12430
2019-02-23T08:36:01.155Z,13723
2019-02-23T08:36:30.771Z,12560
2019-02-23T08:37:00.855Z,13300
2019-02-23T08:37:30.832Z,13580
2019-02-23T08:38:01.101Z,14197
2019-02-23T08:38:30.876Z,14530
2019-02-23T08:39:01.040Z,14787
2019-02-23T08:39:30.921Z,15500
2019-02-23T08:40:01.040Z,16447
2019-02-23T08:40:30.977Z,16993
2019-02-23T08:41:01.193Z,16487
2019-02-23T08:41:31.041Z,16280
2019-02-23T08:42:01.126Z,16097
2019-02-23T08:42:31.098Z,16013
2019-02-23T08:43:01.162Z,15677
2019-02-23T08:43:31.194Z,15037
2019-02-23T08:44:01.248Z,15130
2019-02-23T08:44:31.304Z,15233
2019-02-23T08:45:01.314Z,15830
2019-02-23T08:45:31.285Z,15863
2019-02-23T08:46:01.352Z,16107
2019-02-23T08:46:31.403Z,16707
2019-02-23T08:47:01.392Z,16777
2019-02-23T08:47:31.476Z,17423
2019-02-23T08:48:01.515Z,16990
2019-02-23T08:48:33.373Z,16267
2019-02-23T08:49:01.632Z,17120
2019-02-23T08:49:31.607Z,17133
2019-02-23T08:50:01.587Z,16963
2019-02-23T08:50:31.622Z,17787
2019-02-23T08:51:01.668Z,19513
2019-02-23T08:51:31.671Z,20130
2019-02-23T08:52:01.702Z,20747
2019-02-23T08:52:31.768Z,20850
2019-02-23T08:53:01.834Z,21183
2019-02-23T08:53:31.792Z,21260
2019-02-23T08:54:01.847Z,21447
2019-02-23T08:54:31.842Z,22103
2019-02-23T08:55:02.026Z,21713
2019-02-23T08:55:31.900Z,21220
2019-02-23T08:56:02.065Z,20883
2019-02-23T08:56:32.038Z,20513
2019-02-23T08:57:02.039Z,20080
2019-02-23T08:57:32.027Z,19967
2019-02-23T08:58:02.063Z,20493
2019-02-23T08:58:32.195Z,20977
2019-02-23T08:59:02.169Z,21170
2019-02-23T08:59:32.174Z,21163
2019-02-23T09:00:02.193Z,21267
2019-02-23T09:00:32.207Z,22240
2019-02-23T09:01:02.375Z,22327
2019-02-23T09:01:32.316Z,23123
2019-02-23T09:02:02.313Z,24060
2019-02-23T09:02:32.396Z,23120
2019-02-23T09:03:02.415Z,24507
2019-02-23T09:03:32.440Z,23590
2019-02-23T09:04:02.478Z,21997
2019-02-23T09:04:32.473Z,20967
2019-02-23T09:05:02.538Z,23743
2019-02-23T09:05:32.525Z,24753
2019-02-23T09:06:02.618Z,26440
2019-02-23T09:06:32.742Z,26617
2019-02-23T09:07:02.665Z,27363
2019-02-23T09:07:32.668Z,27610
2019-02-23T09:08:02.746Z,27803
2019-02-23T09:08:32.723Z,29117
2019-02-23T09:09:02.768Z,29120
2019-02-23T09:09:32.826Z,29653
2019-02-23T09:10:02.930Z,30090
2019-02-23T09:10:32.859Z,30307
2019-02-23T09:11:02.896Z,30413
2019-02-23T09:11:32.953Z,30800
2019-02-23T09:12:02.986Z,30997
2019-02-23T09:12:32.983Z,31253
2019-02-23T09:13:03.025Z,31480
2019-02-23T09:13:33.058Z,31683
2019-02-23T09:14:03.092Z,32447
2019-02-23T09:14:33.066Z,32823
2019-02-23T09:15:03.229Z,32150
2019-02-23T09:15:33.179Z,32100
2019-02-23T09:16:03.249Z,32223
2019-02-23T09:16:33.275Z,31790
2019-02-23T09:17:03.307Z,31953
2019-02-23T09:17:33.334Z,31787
2019-02-23T09:18:03.371Z,32057
2019-02-23T09:18:33.405Z,32047
2019-02-23T09:19:03.430Z,32037
2019-02-23T09:20:04.942Z,31710
2019-02-23T09:20:33.468Z,32373
2019-02-23T09:21:03.573Z,31863
2019-02-23T09:21:33.565Z,32077
2019-02-23T09:22:03.558Z,32853
2019-02-23T09:23:03.618Z,32777
2019-02-23T09:23:33.666Z,32860
2019-02-23T09:24:03.672Z,32847
2019-02-23T09:24:33.704Z,33360
2019-02-23T09:25:03.802Z,33427
2019-02-23T09:25:33.785Z,33717
2019-02-23T09:26:03.808Z,33707
2019-02-23T09:26:33.807Z,34087
2019-02-23T09:27:04.021Z,34117
2019-02-23T09:27:34.024Z,33960
2019-02-23T09:28:05.026Z,33613
2019-02-23T09:28:35.062Z,33937
2019-02-23T09:29:05.086Z,33353
2019-02-23T09:29:35.097Z,33923
2019-02-23T09:30:05.234Z,33700
2019-02-23T09:30:35.154Z,33150
2019-02-23T09:31:05.253Z,32900
2019-02-23T09:31:35.263Z,32447
2019-02-23T09:32:05.305Z,33767
2019-02-23T09:32:35.283Z,34867
2019-02-23T09:33:05.329Z,33407
2019-02-23T09:33:35.402Z,35227
2019-02-23T09:34:05.421Z,35480
2019-02-23T09:34:35.453Z,35360
2019-02-23T09:35:05.664Z,36463
2019-02-23T09:35:35.522Z,35990
2019-02-23T09:36:05.576Z,35580
2019-02-23T09:36:35.581Z,36480
2019-02-23T09:37:05.649Z,36397
2019-02-23T09:37:35.617Z,36230
2019-02-23T09:38:05.658Z,35840
2019-02-23T09:38:35.728Z,36023
2019-02-23T09:39:05.737Z,36153
2019-02-23T09:39:35.908Z,36120
2019-02-23T09:40:05.908Z,35563
2019-02-23T09:40:35.806Z,35297
2019-02-23T09:41:05.880Z,34903
2019-02-23T09:41:35.894Z,34347
2019-02-23T09:42:07.574Z,33547
2019-02-23T09:42:35.927Z,33333
2019-02-23T09:43:05.974Z,34113
2019-02-23T09:43:35.999Z,34160
2019-02-23T09:44:06.046Z,33297
2019-02-23T09:44:36.082Z,32433
2019-02-23T09:45:06.152Z,29977
2019-02-23T09:45:36.138Z,32977
2019-02-23T09:46:06.146Z,32937
2019-02-23T09:46:36.159Z,32670
2019-02-23T09:47:06.210Z,31827
2019-02-23T09:47:36.237Z,29187
2019-02-23T09:48:06.306Z,28960
2019-02-23T09:48:36.305Z,29577
2019-02-23T09:49:06.351Z,30620
2019-02-23T09:49:36.329Z,28960
2019-02-23T09:50:06.434Z,31967
2019-02-23T09:50:36.422Z,29817
2019-02-23T09:51:06.508Z,31583
2019-02-23T09:51:36.509Z,32737
2019-02-23T09:52:06.518Z,33363
2019-02-23T09:52:36.577Z,33707
2019-02-23T09:53:10.959Z,33540
2019-02-23T09:53:36.627Z,34087
2019-02-23T09:54:06.996Z,33617
2019-02-23T09:54:36.704Z,33623
2019-02-23T09:55:06.738Z,34187
2019-02-23T09:55:36.761Z,34070
2019-02-23T09:56:06.742Z,34143
2019-02-23T09:56:36.796Z,33887
2019-02-23T09:57:06.816Z,33063
2019-02-23T09:57:36.823Z,33497
2019-02-23T09:58:06.865Z,33877
2019-02-23T09:58:36.882Z,33360
2019-02-23T09:59:06.930Z,32803
2019-02-23T09:59:37.087Z,32513
2019-02-23T10:00:07.041Z,33050
2019-02-23T10:00:37.002Z,32643
2019-02-23T10:01:07.068Z,31823
2019-02-23T10:01:37.063Z,30097
2019-02-23T10:02:07.160Z,31393
2019-02-23T10:02:37.125Z,31953
2019-02-23T10:03:07.173Z,32423
2019-02-23T10:03:37.252Z,32137
2019-02-23T10:04:07.263Z,32567
2019-02-23T10:04:37.303Z,32283
2019-02-23T10:05:07.391Z,32310
2019-02-23T10:05:38.177Z,30727
2019-02-23T10:06:07.374Z,27973
2019-02-23T10:06:37.406Z,31663
2019-02-23T10:07:07.472Z,33113
2019-02-23T10:07:37.447Z,32733
2019-02-23T10:08:07.519Z,32440
2019-02-23T10:08:37.553Z,31260
2019-02-23T10:09:07.572Z,32240
2019-02-23T10:09:37.590Z,34030
2019-02-23T10:10:07.629Z,31843
2019-02-23T10:10:37.673Z,28597
2019-02-23T10:11:07.693Z,33803
2019-02-23T10:11:37.691Z,34010
2019-02-23T10:12:07.724Z,33813
2019-02-23T10:12:37.782Z,35200
2019-02-23T10:13:07.795Z,33503
2019-02-23T10:13:37.797Z,35907
2019-02-23T10:14:07.859Z,34410
2019-02-23T10:14:37.862Z,35923
2019-02-23T10:15:08.001Z,35370
2019-02-23T10:15:37.919Z,35907
2019-02-23T10:16:07.973Z,34887
2019-02-23T10:16:37.985Z,33820
2019-02-23T10:17:09.253Z,32250
2019-02-23T10:17:38.046Z,32897
2019-02-23T10:18:08.125Z,32740
2019-02-23T10:18:38.139Z,36517
2019-02-23T10:19:08.183Z,36993
2019-02-23T10:19:38.167Z,37580
2019-02-23T10:20:08.294Z,36467
2019-02-23T10:20:38.274Z,35437
2019-02-23T10:21:08.317Z,35280
2019-02-23T10:21:38.335Z,35913
2019-02-23T10:22:08.388Z,35720
2019-02-23T10:22:39.581Z,36023
2019-02-23T10:23:08.412Z,35627
2019-02-23T10:23:38.503Z,33127
2019-02-23T10:24:08.534Z,30637
2019-02-23T10:24:38.580Z,31857
2019-02-23T10:25:08.633Z,32500
2019-02-23T10:25:38.618Z,31380
2019-02-23T10:26:08.626Z,33497
2019-02-23T10:26:38.635Z,34170
2019-02-23T10:27:08.730Z,34580
2019-02-23T10:27:38.665Z,33723
2019-02-23T10:28:08.742Z,33673
2019-02-23T10:28:38.763Z,35287
2019-02-23T10:29:08.773Z,33440
2019-02-23T10:29:38.814Z,31360
2019-02-23T10:30:08.895Z,27197
2019-02-23T10:30:38.909Z,24607
2019-02-23T10:31:08.935Z,27603
2019-02-23T10:31:38.935Z,30927
2019-02-23T10:32:08.995Z,31370
2019-02-23T10:32:38.996Z,31083
2019-02-23T10:33:09.047Z,32080
2019-02-23T10:33:47.297Z,34040
2019-02-23T10:34:09.121Z,34073
2019-02-23T10:34:39.142Z,35680
2019-02-23T10:35:09.258Z,35990
2019-02-23T10:35:39.227Z,36480
2019-02-23T10:36:09.204Z,37013
2019-02-23T10:36:39.271Z,37317
2019-02-23T10:37:09.311Z,36697
2019-02-23T10:37:39.323Z,35907
2019-02-23T10:38:09.365Z,36693
2019-02-23T10:38:39.351Z,36407
2019-02-23T10:39:09.486Z,36247
2019-02-23T10:39:39.459Z,34557
2019-02-23T10:40:09.508Z,35640
2019-02-23T10:40:39.517Z,35770
2019-02-23T10:41:09.524Z,36760
2019-02-23T10:41:39.563Z,37177
2019-02-23T10:42:09.575Z,36850
2019-02-23T10:42:39.617Z,36620
2019-02-23T10:43:09.652Z,36013
2019-02-23T10:43:39.671Z,35233
2019-02-23T10:44:09.797Z,32637
2019-02-23T10:44:39.711Z,34233
2019-02-23T10:45:09.782Z,34807
2019-02-23T10:45:39.791Z,34260
2019-02-23T10:46:09.821Z,36030
2019-02-23T10:46:39.842Z,36413
2019-02-23T10:47:09.876Z,35573
2019-02-23T10:47:39.907Z,35853
2019-02-23T10:48:09.996Z,35580
2019-02-23T10:48:39.962Z,35780
2019-02-23T10:49:10.000Z,33800
2019-02-23T10:49:40.067Z,34787
2019-02-23T10:50:10.067Z,35220
2019-02-23T10:50:40.118Z,34867
2019-02-23T10:51:10.136Z,35207
2019-02-23T10:51:40.207Z,36480
2019-02-23T10:52:10.254Z,37767
2019-02-23T10:52:40.256Z,38327
2019-02-23T10:53:10.314Z,38457
2019-02-23T10:53:40.282Z,38250
2019-02-23T10:54:10.395Z,37693
2019-02-23T10:54:40.344Z,37790
2019-02-23T10:55:10.429Z,36980
2019-02-23T10:55:40.434Z,36760
2019-02-23T10:56:10.480Z,38187
2019-02-23T10:56:40.605Z,38683
2019-02-23T10:57:10.559Z,38840
2019-02-23T10:57:40.582Z,37750
2019-02-23T10:58:10.601Z,39697
2019-02-23T10:58:40.609Z,38357
2019-02-23T10:59:10.706Z,38250
2019-02-23T10:59:40.639Z,37020
2019-02-23T11:00:10.671Z,36910
2019-02-23T11:00:40.738Z,35003
2019-02-23T11:01:10.746Z,35873
2019-02-23T11:01:40.761Z,36640
2019-02-23T11:02:10.839Z,37110
2019-02-23T11:02:40.863Z,37080
2019-02-23T11:03:10.892Z,37123
2019-02-23T11:03:40.935Z,36810
2019-02-23T11:04:10.970Z,35750
2019-02-23T11:04:40.940Z,34440
2019-02-23T11:05:11.021Z,34887
2019-02-23T11:05:40.998Z,37033
2019-02-23T11:06:11.174Z,37317
2019-02-23T11:06:41.129Z,36903
2019-02-23T11:07:11.131Z,37170
2019-02-23T11:07:41.151Z,36947
2019-02-23T11:08:11.224Z,37560
2019-02-23T11:08:41.194Z,37480
2019-02-23T11:09:11.267Z,37583
2019-02-23T11:09:41.308Z,37823
2019-02-23T11:10:11.348Z,37240
2019-02-23T11:10:41.306Z,37500
2019-02-23T11:11:11.409Z,37117
2019-02-23T11:11:41.425Z,36007
2019-02-23T11:12:11.458Z,35510
2019-02-23T11:12:41.535Z,36267
2019-02-23T11:13:11.580Z,35677
2019-02-23T11:13:41.535Z,34797
2019-02-23T11:14:11.583Z,34763
2019-02-23T11:14:41.582Z,34293
2019-02-23T11:15:11.666Z,34027
2019-02-23T11:15:41.761Z,34157
2019-02-23T11:16:11.705Z,33710
2019-02-23T11:16:41.738Z,33473
2019-02-23T11:17:11.808Z,33013
2019-02-23T11:17:41.743Z,33500
2019-02-23T11:18:11.915Z,33483
2019-02-23T11:18:41.812Z,33143
2019-02-23T11:19:11.918Z,33160
2019-02-23T11:19:41.899Z,32860
2019-02-23T11:20:11.962Z,33267
2019-02-23T11:20:41.989Z,33127
2019-02-23T11:21:12.005Z,33910
2019-02-23T11:21:42.023Z,34010
2019-02-23T11:22:12.061Z,34193
2019-02-23T11:22:42.110Z,34103
2019-02-23T11:23:12.220Z,33910
2019-02-23T11:23:44.402Z,33847
2019-02-23T11:24:12.181Z,33773
2019-02-23T11:24:42.211Z,32857
2019-02-23T11:25:12.223Z,30127
2019-02-23T11:25:42.284Z,28560
2019-02-23T11:26:12.342Z,26983
2019-02-23T11:26:42.322Z,24593
2019-02-23T11:27:12.412Z,25713
2019-02-23T11:28:13.488Z,28350
2019-02-23T11:28:43.428Z,28347
2019-02-23T11:29:13.489Z,30733
2019-02-23T11:29:43.497Z,33963
2019-02-23T11:30:13.539Z,35510
2019-02-23T11:30:43.528Z,31730
2019-02-23T11:31:13.623Z,33810
2019-02-23T11:31:43.621Z,36863
2019-02-23T11:32:13.614Z,35733
2019-02-23T11:32:43.626Z,34350
2019-02-23T11:33:13.738Z,35073
2019-02-23T11:33:43.783Z,35297
2019-02-23T11:34:13.799Z,35950
2019-02-23T11:34:43.782Z,36180
2019-02-23T11:35:13.801Z,35837
2019-02-23T11:35:43.838Z,38943
2019-02-23T11:36:13.884Z,38033
2019-02-23T11:36:43.886Z,39347
2019-02-23T11:37:13.925Z,40413
2019-02-23T11:37:43.935Z,39400
2019-02-23T11:38:14.042Z,38800
2019-02-23T11:38:44.003Z,39797
2019-02-23T11:39:14.052Z,38983
2019-02-23T11:39:44.101Z,39450
2019-02-23T11:40:14.105Z,41240
2019-02-23T11:40:44.172Z,39937
2019-02-23T11:41:14.203Z,41150
2019-02-23T11:41:44.191Z,40367
2019-02-23T11:42:14.278Z,41130
2019-02-23T11:42:44.311Z,40803
2019-02-23T11:43:14.392Z,39303
2019-02-23T11:43:44.346Z,39420
2019-02-23T11:44:14.395Z,38853
2019-02-23T11:44:44.374Z,35537
2019-02-23T11:45:14.419Z,34937
2019-02-23T11:45:44.452Z,34547
2019-02-23T11:46:14.483Z,34870
2019-02-23T11:46:59.116Z,33023
2019-02-23T11:47:14.589Z,35763
2019-02-23T11:47:44.607Z,36823
2019-02-23T11:48:14.653Z,37800
2019-02-23T11:48:44.688Z,37497
2019-02-23T11:49:14.731Z,37820
2019-02-23T11:49:44.701Z,38910
2019-02-23T11:50:14.763Z,39127
2019-02-23T11:50:44.768Z,39200
2019-02-23T11:51:14.819Z,40110
2019-02-23T11:51:44.865Z,40917
2019-02-23T11:52:14.892Z,41383
2019-02-23T11:52:44.955Z,42353
2019-02-23T11:53:15.377Z,43153
2019-02-23T11:53:54.544Z,43543
2019-02-23T11:54:15.005Z,43980
2019-02-23T11:54:45.038Z,43790
2019-02-23T11:55:15.071Z,43440
2019-02-23T11:55:45.073Z,43350
2019-02-23T11:56:15.127Z,42700
2019-02-23T11:56:45.135Z,41873
2019-02-23T11:57:15.171Z,41027
2019-02-23T11:57:45.170Z,40627
2019-02-23T11:58:15.285Z,39770
2019-02-23T11:58:45.267Z,39967
2019-02-23T11:59:15.303Z,40100
2019-02-23T11:59:45.327Z,41043
2019-02-23T12:00:15.406Z,40987
2019-02-23T12:00:45.398Z,40233
2019-02-23T12:01:15.455Z,40587
2019-02-23T12:01:45.435Z,39660
2019-02-23T12:02:15.498Z,39037
2019-02-23T12:02:52.262Z,39457
2019-02-23T12:03:15.547Z,38450
2019-02-23T12:03:45.599Z,37427
2019-02-23T12:04:15.655Z,35680
2019-02-23T12:04:45.612Z,34170
2019-02-23T12:05:15.666Z,32687
2019-02-23T12:05:45.661Z,31897
2019-02-23T12:06:15.706Z,31970
2019-02-23T12:06:45.750Z,31020
2019-02-23T12:07:15.834Z,31617
2019-02-23T12:07:45.787Z,31577
2019-02-23T12:08:15.871Z,31540
2019-02-23T12:08:45.899Z,31257
2019-02-23T12:09:15.925Z,31063
2019-02-23T12:09:45.920Z,31690
2019-02-23T12:10:15.958Z,32223
2019-02-23T12:10:45.995Z,30283
2019-02-23T12:11:16.016Z,30027
2019-02-23T12:11:46.068Z,30847
2019-02-23T12:12:16.079Z,30933
2019-02-23T12:12:46.095Z,31510
2019-02-23T12:13:16.235Z,33573
2019-02-23T12:13:46.205Z,35337
2019-02-23T12:14:16.236Z,36543
2019-02-23T12:14:46.275Z,35517
2019-02-23T12:15:16.305Z,36123
2019-02-23T12:15:46.306Z,36717
2019-02-23T12:16:16.455Z,36703
2019-02-23T12:16:46.392Z,37663
2019-02-23T12:17:16.391Z,38360
2019-02-23T12:17:46.443Z,38653
2019-02-23T12:18:16.506Z,39993
2019-02-23T12:18:46.517Z,40063
2019-02-23T12:19:16.822Z,41593
2019-02-23T12:19:46.568Z,42173
2019-02-23T12:20:16.605Z,41700
2019-02-23T12:20:46.612Z,41810
2019-02-23T12:21:16.632Z,42737
2019-02-23T12:21:46.672Z,43660
2019-02-23T12:22:16.706Z,43527
2019-02-23T12:22:46.740Z,42880
2019-02-23T12:23:16.782Z,41673
2019-02-23T12:23:46.780Z,40883
2019-02-23T12:24:16.843Z,40457
2019-02-23T12:24:46.838Z,39277
2019-02-23T12:25:17.334Z,38653
2019-02-23T12:25:46.900Z,37333
2019-02-23T12:26:16.940Z,36487